sensor_id;sensor_type;location;lat;lon;timestamp;P1;durP1;ratioP1;P2;durP2;ratioP2
38513;SDS011;24282;48.400;10.808;2022-12-07T00:01:12;7.63;;;5.80;;
38513;SDS011;24282;48.400;10.808;2022-12-07T00:03:39;7.97;;;5.67;;
38513;SDS011;24282;48.400;10.808;2022-12-07T00:06:07;8.37;;;6.33;;
38513;SDS011;24282;48.400;10.808;2022-12-07T00:08:35;8.67;;;6.00;;
38513;SDS011;24282;48.400;10.808;2022-12-07T00:11:08;8.53;;;6.83;;
38513;SDS011;24282;48.400;10.808;2022-12-07T00:13:36;7.87;;;6.20;;
38513;SDS011;24282;48.400;10.808;2022-12-07T00:16:03;7.30;;;6.00;;
38513;SDS011;24282;48.400;10.808;2022-12-07T00:18:34;7.70;;;6.50;;
38513;SDS011;24282;48.400;10.808;2022-12-07T00:21:04;7.17;;;5.73;;
38513;SDS011;24282;48.400;10.808;2022-12-07T00:23:32;7.73;;;6.20;;
38513;SDS011;24282;48.400;10.808;2022-12-07T00:26:11;7.87;;;6.33;;
38513;SDS011;24282;48.400;10.808;2022-12-07T00:31:12;7.70;;;6.20;;
38513;SDS011;24282;48.400;10.808;2022-12-07T00:33:38;8.73;;;6.33;;
38513;SDS011;24282;48.400;10.808;2022-12-07T00:36:05;8.07;;;6.03;;
38513;SDS011;24282;48.400;10.808;2022-12-07T00:38:33;8.47;;;6.30;;
38513;SDS011;24282;48.400;10.808;2022-12-07T00:41:02;8.40;;;6.50;;
38513;SDS011;24282;48.400;10.808;2022-12-07T00:43:29;8.33;;;6.23;;
38513;SDS011;24282;48.400;10.808;2022-12-07T00:45:55;7.43;;;6.10;;
38513;SDS011;24282;48.400;10.808;2022-12-07T00:48:21;7.13;;;5.87;;
38513;SDS011;24282;48.400;10.808;2022-12-07T00:50:48;7.77;;;6.17;;
38513;SDS011;24282;48.400;10.808;2022-12-07T00:53:14;7.03;;;6.03;;
38513;SDS011;24282;48.400;10.808;2022-12-07T00:55:40;7.50;;;6.07;;
38513;SDS011;24282;48.400;10.808;2022-12-07T00:58:06;6.33;;;5.43;;
38513;SDS011;24282;48.400;10.808;2022-12-07T01:00:32;6.97;;;5.80;;
38513;SDS011;24282;48.400;10.808;2022-12-07T01:03:00;7.27;;;6.17;;
38513;SDS011;24282;48.400;10.808;2022-12-07T01:05:25;7.20;;;5.83;;
38513;SDS011;24282;48.400;10.808;2022-12-07T01:07:51;7.50;;;6.37;;
38513;SDS011;24282;48.400;10.808;2022-12-07T01:10:17;8.57;;;6.37;;
38513;SDS011;24282;48.400;10.808;2022-12-07T01:12:43;8.43;;;5.73;;
38513;SDS011;24282;48.400;10.808;2022-12-07T01:15:08;7.80;;;5.90;;
38513;SDS011;24282;48.400;10.808;2022-12-07T01:17:34;7.70;;;5.77;;
38513;SDS011;24282;48.400;10.808;2022-12-07T01:20:00;7.37;;;4.73;;
38513;SDS011;24282;48.400;10.808;2022-12-07T01:22:27;7.13;;;5.43;;
38513;SDS011;24282;48.400;10.808;2022-12-07T01:24:52;6.93;;;5.10;;
38513;SDS011;24282;48.400;10.808;2022-12-07T01:27:18;7.40;;;5.30;;
38513;SDS011;24282;48.400;10.808;2022-12-07T01:29:44;6.10;;;5.10;;
38513;SDS011;24282;48.400;10.808;2022-12-07T01:32:10;6.40;;;5.40;;
38513;SDS011;24282;48.400;10.808;2022-12-07T01:34:35;6.80;;;5.43;;
38513;SDS011;24282;48.400;10.808;2022-12-07T01:37:01;7.37;;;5.83;;
38513;SDS011;24282;48.400;10.808;2022-12-07T01:39:27;7.37;;;5.83;;
38513;SDS011;24282;48.400;10.808;2022-12-07T01:41:52;7.30;;;5.60;;
38513;SDS011;24282;48.400;10.808;2022-12-07T01:44:26;7.13;;;5.23;;
38513;SDS011;24282;48.400;10.808;2022-12-07T01:51:56;6.27;;;5.30;;
38513;SDS011;24282;48.400;10.808;2022-12-07T01:54:28;7.47;;;5.30;;
38513;SDS011;24282;48.400;10.808;2022-12-07T01:56:55;7.70;;;5.53;;
38513;SDS011;24282;48.400;10.808;2022-12-07T01:59:26;7.43;;;5.20;;
38513;SDS011;24282;48.400;10.808;2022-12-07T02:01:53;6.40;;;5.63;;
38513;SDS011;24282;48.400;10.808;2022-12-07T02:04:21;6.57;;;5.30;;
38513;SDS011;24282;48.400;10.808;2022-12-07T02:06:47;6.70;;;5.47;;
38513;SDS011;24282;48.400;10.808;2022-12-07T02:09:14;7.90;;;6.23;;
38513;SDS011;24282;48.400;10.808;2022-12-07T02:11:40;7.87;;;6.20;;
38513;SDS011;24282;48.400;10.808;2022-12-07T02:14:06;10.10;;;6.33;;
38513;SDS011;24282;48.400;10.808;2022-12-07T02:27:34;7.20;;;5.27;;
38513;SDS011;24282;48.400;10.808;2022-12-07T02:30:14;8.37;;;6.20;;
38513;SDS011;24282;48.400;10.808;2022-12-07T02:35:30;7.60;;;5.83;;
38513;SDS011;24282;48.400;10.808;2022-12-07T02:40:52;7.73;;;6.23;;
38513;SDS011;24282;48.400;10.808;2022-12-07T02:43:34;8.00;;;7.20;;
38513;SDS011;24282;48.400;10.808;2022-12-07T02:46:08;7.53;;;6.63;;
38513;SDS011;24282;48.400;10.808;2022-12-07T02:48:37;7.33;;;6.00;;
38513;SDS011;24282;48.400;10.808;2022-12-07T02:51:04;7.30;;;6.17;;
38513;SDS011;24282;48.400;10.808;2022-12-07T02:56:03;7.63;;;6.20;;
38513;SDS011;24282;48.400;10.808;2022-12-07T03:01:20;7.97;;;6.77;;
38513;SDS011;24282;48.400;10.808;2022-12-07T03:04:02;7.10;;;5.97;;
38513;SDS011;24282;48.400;10.808;2022-12-07T03:06:36;8.07;;;6.60;;
38513;SDS011;24282;48.400;10.808;2022-12-07T03:09:12;10.20;;;6.47;;
38513;SDS011;24282;48.400;10.808;2022-12-07T03:11:48;7.57;;;6.50;;
38513;SDS011;24282;48.400;10.808;2022-12-07T03:14:30;8.03;;;6.50;;
38513;SDS011;24282;48.400;10.808;2022-12-07T03:17:02;7.37;;;6.50;;
38513;SDS011;24282;48.400;10.808;2022-12-07T03:19:38;7.30;;;5.83;;
38513;SDS011;24282;48.400;10.808;2022-12-07T03:22:07;6.67;;;5.60;;
38513;SDS011;24282;48.400;10.808;2022-12-07T03:24:41;7.50;;;6.10;;
38513;SDS011;24282;48.400;10.808;2022-12-07T03:29:57;7.87;;;6.40;;
38513;SDS011;24282;48.400;10.808;2022-12-07T03:35:03;7.93;;;6.03;;
38513;SDS011;24282;48.400;10.808;2022-12-07T03:40:03;7.53;;;6.07;;
38513;SDS011;24282;48.400;10.808;2022-12-07T03:42:39;7.43;;;5.67;;
38513;SDS011;24282;48.400;10.808;2022-12-07T03:45:05;6.13;;;5.33;;
38513;SDS011;24282;48.400;10.808;2022-12-07T03:47:37;7.97;;;6.17;;
38513;SDS011;24282;48.400;10.808;2022-12-07T03:52:43;8.07;;;6.38;;
38513;SDS011;24282;48.400;10.808;2022-12-07T03:55:26;7.65;;;6.20;;
38513;SDS011;24282;48.400;10.808;2022-12-07T03:57:56;9.17;;;6.77;;
38513;SDS011;24282;48.400;10.808;2022-12-07T04:00:27;8.73;;;6.70;;
38513;SDS011;24282;48.400;10.808;2022-12-07T04:02:53;8.47;;;6.80;;
38513;SDS011;24282;48.400;10.808;2022-12-07T04:05:19;7.10;;;6.10;;
38513;SDS011;24282;48.400;10.808;2022-12-07T04:07:45;7.63;;;6.20;;
38513;SDS011;24282;48.400;10.808;2022-12-07T04:10:11;9.00;;;6.30;;
38513;SDS011;24282;48.400;10.808;2022-12-07T04:12:37;7.93;;;6.37;;
38513;SDS011;24282;48.400;10.808;2022-12-07T04:15:03;8.20;;;6.47;;
38513;SDS011;24282;48.400;10.808;2022-12-07T04:17:30;11.43;;;7.53;;
38513;SDS011;24282;48.400;10.808;2022-12-07T04:19:55;9.50;;;8.03;;
38513;SDS011;24282;48.400;10.808;2022-12-07T04:22:21;9.40;;;8.23;;
38513;SDS011;24282;48.400;10.808;2022-12-07T04:24:47;9.57;;;8.13;;
38513;SDS011;24282;48.400;10.808;2022-12-07T04:27:12;8.83;;;7.23;;
38513;SDS011;24282;48.400;10.808;2022-12-07T04:29:38;10.13;;;7.97;;
38513;SDS011;24282;48.400;10.808;2022-12-07T04:32:04;11.07;;;8.20;;
38513;SDS011;24282;48.400;10.808;2022-12-07T04:34:30;8.90;;;7.37;;
38513;SDS011;24282;48.400;10.808;2022-12-07T04:36:56;9.13;;;7.33;;
38513;SDS011;24282;48.400;10.808;2022-12-07T04:39:26;9.17;;;7.77;;
38513;SDS011;24282;48.400;10.808;2022-12-07T04:41:53;8.50;;;6.97;;
38513;SDS011;24282;48.400;10.808;2022-12-07T04:44:19;9.83;;;7.60;;
38513;SDS011;24282;48.400;10.808;2022-12-07T04:46:45;8.60;;;7.43;;
38513;SDS011;24282;48.400;10.808;2022-12-07T04:49:12;8.60;;;7.23;;
38513;SDS011;24282;48.400;10.808;2022-12-07T04:51:38;8.80;;;7.53;;
38513;SDS011;24282;48.400;10.808;2022-12-07T04:54:05;9.00;;;7.40;;
38513;SDS011;24282;48.400;10.808;2022-12-07T04:56:30;11.17;;;8.90;;
38513;SDS011;24282;48.400;10.808;2022-12-07T04:58:57;13.00;;;10.20;;
38513;SDS011;24282;48.400;10.808;2022-12-07T05:01:22;14.70;;;10.90;;
38513;SDS011;24282;48.400;10.808;2022-12-07T05:03:49;11.37;;;9.00;;
38513;SDS011;24282;48.400;10.808;2022-12-07T05:06:15;10.13;;;8.10;;
38513;SDS011;24282;48.400;10.808;2022-12-07T05:08:41;10.37;;;8.50;;
38513;SDS011;24282;48.400;10.808;2022-12-07T05:11:08;9.83;;;7.43;;
38513;SDS011;24282;48.400;10.808;2022-12-07T05:13:55;11.60;;;8.43;;
38513;SDS011;24282;48.400;10.808;2022-12-07T05:16:21;11.40;;;8.37;;
38513;SDS011;24282;48.400;10.808;2022-12-07T05:18:46;9.63;;;7.97;;
38513;SDS011;24282;48.400;10.808;2022-12-07T05:21:12;9.67;;;7.63;;
38513;SDS011;24282;48.400;10.808;2022-12-07T05:23:38;9.93;;;8.00;;
38513;SDS011;24282;48.400;10.808;2022-12-07T05:26:03;8.93;;;7.90;;
38513;SDS011;24282;48.400;10.808;2022-12-07T05:28:29;10.33;;;8.30;;
38513;SDS011;24282;48.400;10.808;2022-12-07T05:30:55;11.80;;;8.83;;
38513;SDS011;24282;48.400;10.808;2022-12-07T05:33:20;8.50;;;7.27;;
38513;SDS011;24282;48.400;10.808;2022-12-07T05:35:46;9.80;;;7.30;;
38513;SDS011;24282;48.400;10.808;2022-12-07T05:38:12;10.27;;;7.47;;
38513;SDS011;24282;48.400;10.808;2022-12-07T05:40:37;9.40;;;7.90;;
38513;SDS011;24282;48.400;10.808;2022-12-07T05:43:03;8.73;;;7.03;;
38513;SDS011;24282;48.400;10.808;2022-12-07T05:45:29;9.57;;;8.57;;
38513;SDS011;24282;48.400;10.808;2022-12-07T05:47:54;9.90;;;8.43;;
38513;SDS011;24282;48.400;10.808;2022-12-07T05:50:20;9.13;;;7.70;;
38513;SDS011;24282;48.400;10.808;2022-12-07T05:52:58;8.70;;;7.40;;
38513;SDS011;24282;48.400;10.808;2022-12-07T05:55:25;10.10;;;8.10;;
38513;SDS011;24282;48.400;10.808;2022-12-07T05:57:50;9.40;;;8.27;;
38513;SDS011;24282;48.400;10.808;2022-12-07T06:00:35;10.33;;;8.50;;
38513;SDS011;24282;48.400;10.808;2022-12-07T06:03:00;13.40;;;9.53;;
38513;SDS011;24282;48.400;10.808;2022-12-07T06:05:26;12.23;;;9.07;;
38513;SDS011;24282;48.400;10.808;2022-12-07T06:07:52;9.03;;;7.80;;
38513;SDS011;24282;48.400;10.808;2022-12-07T06:10:18;9.63;;;8.00;;
38513;SDS011;24282;48.400;10.808;2022-12-07T06:12:43;9.40;;;7.70;;
38513;SDS011;24282;48.400;10.808;2022-12-07T06:15:11;8.90;;;7.97;;
38513;SDS011;24282;48.400;10.808;2022-12-07T06:17:38;10.97;;;8.70;;
38513;SDS011;24282;48.400;10.808;2022-12-07T06:20:04;9.03;;;7.50;;
38513;SDS011;24282;48.400;10.808;2022-12-07T06:22:30;10.37;;;8.33;;
38513;SDS011;24282;48.400;10.808;2022-12-07T06:24:56;10.80;;;9.00;;
38513;SDS011;24282;48.400;10.808;2022-12-07T06:27:22;9.47;;;7.83;;
38513;SDS011;24282;48.400;10.808;2022-12-07T06:29:48;9.43;;;7.67;;
38513;SDS011;24282;48.400;10.808;2022-12-07T06:32:13;9.67;;;8.03;;
38513;SDS011;24282;48.400;10.808;2022-12-07T06:34:39;8.97;;;8.07;;
38513;SDS011;24282;48.400;10.808;2022-12-07T06:37:05;10.37;;;8.60;;
38513;SDS011;24282;48.400;10.808;2022-12-07T06:39:30;11.03;;;8.83;;
38513;SDS011;24282;48.400;10.808;2022-12-07T06:41:56;11.87;;;8.77;;
38513;SDS011;24282;48.400;10.808;2022-12-07T06:44:23;12.83;;;9.17;;
38513;SDS011;24282;48.400;10.808;2022-12-07T06:46:49;10.07;;;8.33;;
38513;SDS011;24282;48.400;10.808;2022-12-07T06:49:16;10.23;;;8.03;;
38513;SDS011;24282;48.400;10.808;2022-12-07T06:51:42;9.77;;;8.40;;
38513;SDS011;24282;48.400;10.808;2022-12-07T06:54:09;10.43;;;8.40;;
38513;SDS011;24282;48.400;10.808;2022-12-07T06:56:36;9.23;;;8.20;;
38513;SDS011;24282;48.400;10.808;2022-12-07T06:59:02;12.67;;;9.30;;
38513;SDS011;24282;48.400;10.808;2022-12-07T07:01:30;13.90;;;11.00;;
38513;SDS011;24282;48.400;10.808;2022-12-07T07:03:56;15.57;;;11.60;;
38513;SDS011;24282;48.400;10.808;2022-12-07T07:06:22;12.97;;;9.90;;
38513;SDS011;24282;48.400;10.808;2022-12-07T07:08:48;11.63;;;9.50;;
38513;SDS011;24282;48.400;10.808;2022-12-07T07:11:14;11.00;;;9.00;;
38513;SDS011;24282;48.400;10.808;2022-12-07T07:13:40;12.93;;;10.17;;
38513;SDS011;24282;48.400;10.808;2022-12-07T07:16:06;12.47;;;10.23;;
38513;SDS011;24282;48.400;10.808;2022-12-07T07:18:32;12.60;;;9.93;;
38513;SDS011;24282;48.400;10.808;2022-12-07T07:20:58;13.03;;;10.53;;
38513;SDS011;24282;48.400;10.808;2022-12-07T07:23:24;13.43;;;10.63;;
38513;SDS011;24282;48.400;10.808;2022-12-07T07:25:50;13.03;;;10.90;;
38513;SDS011;24282;48.400;10.808;2022-12-07T07:28:16;14.53;;;10.73;;
38513;SDS011;24282;48.400;10.808;2022-12-07T07:30:42;13.23;;;10.43;;
38513;SDS011;24282;48.400;10.808;2022-12-07T07:33:07;14.37;;;10.93;;
38513;SDS011;24282;48.400;10.808;2022-12-07T07:35:35;14.77;;;10.50;;
38513;SDS011;24282;48.400;10.808;2022-12-07T07:38:01;13.07;;;10.77;;
38513;SDS011;24282;48.400;10.808;2022-12-07T07:40:27;12.43;;;10.33;;
38513;SDS011;24282;48.400;10.808;2022-12-07T07:42:56;12.60;;;10.37;;
38513;SDS011;24282;48.400;10.808;2022-12-07T07:45:22;12.27;;;9.77;;
38513;SDS011;24282;48.400;10.808;2022-12-07T07:47:50;12.03;;;9.80;;
38513;SDS011;24282;48.400;10.808;2022-12-07T07:50:16;14.47;;;10.97;;
38513;SDS011;24282;48.400;10.808;2022-12-07T07:52:42;13.10;;;10.77;;
38513;SDS011;24282;48.400;10.808;2022-12-07T07:55:08;16.40;;;11.10;;
38513;SDS011;24282;48.400;10.808;2022-12-07T07:57:38;14.40;;;11.77;;
38513;SDS011;24282;48.400;10.808;2022-12-07T08:00:06;12.60;;;10.97;;
38513;SDS011;24282;48.400;10.808;2022-12-07T08:02:38;14.85;;;12.50;;
38513;SDS011;24282;48.400;10.808;2022-12-07T08:05:04;15.00;;;12.87;;
38513;SDS011;24282;48.400;10.808;2022-12-07T08:07:30;14.27;;;12.30;;
38513;SDS011;24282;48.400;10.808;2022-12-07T08:09:56;13.73;;;10.97;;
38513;SDS011;24282;48.400;10.808;2022-12-07T08:12:22;13.77;;;11.23;;
38513;SDS011;24282;48.400;10.808;2022-12-07T08:14:47;13.80;;;11.50;;
38513;SDS011;24282;48.400;10.808;2022-12-07T08:17:13;15.20;;;11.93;;
38513;SDS011;24282;48.400;10.808;2022-12-07T08:19:39;13.70;;;11.63;;
38513;SDS011;24282;48.400;10.808;2022-12-07T08:22:05;14.30;;;12.03;;
38513;SDS011;24282;48.400;10.808;2022-12-07T08:24:33;15.40;;;11.47;;
38513;SDS011;24282;48.400;10.808;2022-12-07T08:26:59;14.50;;;11.47;;
38513;SDS011;24282;48.400;10.808;2022-12-07T08:29:25;15.33;;;12.27;;
38513;SDS011;24282;48.400;10.808;2022-12-07T08:31:51;16.93;;;12.37;;
38513;SDS011;24282;48.400;10.808;2022-12-07T08:34:16;15.97;;;12.87;;
38513;SDS011;24282;48.400;10.808;2022-12-07T08:36:42;15.70;;;12.57;;
38513;SDS011;24282;48.400;10.808;2022-12-07T08:39:08;14.97;;;12.73;;
38513;SDS011;24282;48.400;10.808;2022-12-07T08:41:34;15.00;;;11.83;;
38513;SDS011;24282;48.400;10.808;2022-12-07T08:43:59;20.90;;;16.57;;
38513;SDS011;24282;48.400;10.808;2022-12-07T08:46:26;20.97;;;15.10;;
38513;SDS011;24282;48.400;10.808;2022-12-07T08:49:06;23.87;;;15.10;;
38513;SDS011;24282;48.400;10.808;2022-12-07T08:51:38;17.30;;;14.17;;
38513;SDS011;24282;48.400;10.808;2022-12-07T08:54:06;18.97;;;14.40;;
38513;SDS011;24282;48.400;10.808;2022-12-07T08:56:35;17.27;;;13.57;;
38513;SDS011;24282;48.400;10.808;2022-12-07T08:59:01;15.30;;;12.63;;
38513;SDS011;24282;48.400;10.808;2022-12-07T09:01:28;14.50;;;11.70;;
38513;SDS011;24282;48.400;10.808;2022-12-07T09:03:54;12.77;;;10.33;;
38513;SDS011;24282;48.400;10.808;2022-12-07T09:06:20;12.80;;;10.77;;
38513;SDS011;24282;48.400;10.808;2022-12-07T09:08:46;15.70;;;11.03;;
38513;SDS011;24282;48.400;10.808;2022-12-07T09:11:14;12.77;;;10.67;;
38513;SDS011;24282;48.400;10.808;2022-12-07T09:13:40;14.30;;;11.13;;
38513;SDS011;24282;48.400;10.808;2022-12-07T09:16:06;11.80;;;10.00;;
38513;SDS011;24282;48.400;10.808;2022-12-07T09:18:32;11.93;;;10.73;;
38513;SDS011;24282;48.400;10.808;2022-12-07T09:20:57;13.13;;;10.60;;
38513;SDS011;24282;48.400;10.808;2022-12-07T09:23:23;11.73;;;10.20;;
38513;SDS011;24282;48.400;10.808;2022-12-07T09:25:49;11.50;;;9.53;;
38513;SDS011;24282;48.400;10.808;2022-12-07T09:28:15;12.27;;;9.50;;
38513;SDS011;24282;48.400;10.808;2022-12-07T09:30:47;13.60;;;9.60;;
38513;SDS011;24282;48.400;10.808;2022-12-07T09:33:13;12.40;;;9.45;;
38513;SDS011;24282;48.400;10.808;2022-12-07T09:35:46;12.27;;;9.40;;
38513;SDS011;24282;48.400;10.808;2022-12-07T09:38:13;11.40;;;9.33;;
38513;SDS011;24282;48.400;10.808;2022-12-07T09:40:39;10.43;;;8.57;;
38513;SDS011;24282;48.400;10.808;2022-12-07T09:43:05;10.00;;;7.77;;
38513;SDS011;24282;48.400;10.808;2022-12-07T09:45:37;8.17;;;6.10;;
38513;SDS011;24282;48.400;10.808;2022-12-07T09:48:03;7.83;;;6.07;;
38513;SDS011;24282;48.400;10.808;2022-12-07T09:50:30;7.93;;;5.87;;
38513;SDS011;24282;48.400;10.808;2022-12-07T09:53:04;7.47;;;5.57;;
38513;SDS011;24282;48.400;10.808;2022-12-07T09:55:33;7.33;;;5.20;;
38513;SDS011;24282;48.400;10.808;2022-12-07T09:58:01;6.17;;;4.80;;
38513;SDS011;24282;48.400;10.808;2022-12-07T10:00:29;6.73;;;4.77;;
38513;SDS011;24282;48.400;10.808;2022-12-07T10:08:05;7.40;;;5.25;;
38513;SDS011;24282;48.400;10.808;2022-12-07T10:10:35;7.27;;;5.77;;
38513;SDS011;24282;48.400;10.808;2022-12-07T10:13:15;6.67;;;5.30;;
38513;SDS011;24282;48.400;10.808;2022-12-07T10:15:54;7.43;;;5.83;;
38513;SDS011;24282;48.400;10.808;2022-12-07T10:18:31;7.10;;;5.20;;
38513;SDS011;24282;48.400;10.808;2022-12-07T10:21:04;8.20;;;5.87;;
38513;SDS011;24282;48.400;10.808;2022-12-07T10:23:34;8.40;;;5.10;;
38513;SDS011;24282;48.400;10.808;2022-12-07T10:26:21;8.73;;;5.97;;
38513;SDS011;24282;48.400;10.808;2022-12-07T10:31:58;7.07;;;5.67;;
38513;SDS011;24282;48.400;10.808;2022-12-07T10:34:31;8.77;;;6.53;;
38513;SDS011;24282;48.400;10.808;2022-12-07T10:42:09;7.63;;;5.80;;
38513;SDS011;24282;48.400;10.808;2022-12-07T10:51:02;8.00;;;6.17;;
38513;SDS011;24282;48.400;10.808;2022-12-07T10:53:39;9.03;;;6.40;;
38513;SDS011;24282;48.400;10.808;2022-12-07T11:01:33;8.23;;;6.30;;
38513;SDS011;24282;48.400;10.808;2022-12-07T11:20:54;9.43;;;7.53;;
38513;SDS011;24282;48.400;10.808;2022-12-07T11:34:20;6.47;;;4.97;;
38513;SDS011;24282;48.400;10.808;2022-12-07T11:37:09;6.67;;;5.17;;
38513;SDS011;24282;48.400;10.808;2022-12-07T11:39:46;7.53;;;5.50;;
38513;SDS011;24282;48.400;10.808;2022-12-07T11:42:37;7.77;;;5.63;;
38513;SDS011;24282;48.400;10.808;2022-12-07T11:50:27;6.00;;;4.93;;
38513;SDS011;24282;48.400;10.808;2022-12-07T11:58:44;5.83;;;4.47;;
38513;SDS011;24282;48.400;10.808;2022-12-07T12:06:37;6.03;;;4.27;;
38513;SDS011;24282;48.400;10.808;2022-12-07T12:17:23;6.10;;;4.10;;
38513;SDS011;24282;48.400;10.808;2022-12-07T12:25:27;6.27;;;3.87;;
38513;SDS011;24282;48.400;10.808;2022-12-07T12:27:57;5.80;;;3.83;;
38513;SDS011;24282;48.400;10.808;2022-12-07T12:32:54;7.17;;;4.70;;
38513;SDS011;24282;48.400;10.808;2022-12-07T12:35:37;6.82;;;4.25;;
38513;SDS011;24282;48.400;10.808;2022-12-07T12:40:53;5.77;;;3.53;;
38513;SDS011;24282;48.400;10.808;2022-12-07T12:49:30;5.77;;;3.30;;
38513;SDS011;24282;48.400;10.808;2022-12-07T12:52:00;5.77;;;4.27;;
38513;SDS011;24282;48.400;10.808;2022-12-07T12:54:58;4.40;;;3.50;;
38513;SDS011;24282;48.400;10.808;2022-12-07T13:18:04;6.40;;;4.07;;
38513;SDS011;24282;48.400;10.808;2022-12-07T13:23:10;5.60;;;4.03;;
38513;SDS011;24282;48.400;10.808;2022-12-07T13:25:48;4.93;;;4.10;;
38513;SDS011;24282;48.400;10.808;2022-12-07T13:28:23;5.83;;;3.90;;
38513;SDS011;24282;48.400;10.808;2022-12-07T13:31:03;6.00;;;4.03;;
38513;SDS011;24282;48.400;10.808;2022-12-07T13:33:36;6.33;;;4.50;;
38513;SDS011;24282;48.400;10.808;2022-12-07T13:36:02;5.87;;;4.00;;
38513;SDS011;24282;48.400;10.808;2022-12-07T13:38:32;6.00;;;4.37;;
38513;SDS011;24282;48.400;10.808;2022-12-07T13:41:14;5.90;;;4.13;;
38513;SDS011;24282;48.400;10.808;2022-12-07T13:44:01;5.90;;;4.30;;
38513;SDS011;24282;48.400;10.808;2022-12-07T13:51:51;4.00;;;3.30;;
38513;SDS011;24282;48.400;10.808;2022-12-07T13:54:18;5.90;;;3.97;;
38513;SDS011;24282;48.400;10.808;2022-12-07T13:56:47;5.73;;;4.03;;
38513;SDS011;24282;48.400;10.808;2022-12-07T13:59:20;6.10;;;4.10;;
38513;SDS011;24282;48.400;10.808;2022-12-07T14:01:49;4.95;;;3.78;;
38513;SDS011;24282;48.400;10.808;2022-12-07T14:06:58;7.38;;;4.20;;
38513;SDS011;24282;48.400;10.808;2022-12-07T14:09:26;5.67;;;3.90;;
38513;SDS011;24282;48.400;10.808;2022-12-07T14:11:54;5.97;;;3.90;;
38513;SDS011;24282;48.400;10.808;2022-12-07T14:14:22;5.40;;;3.90;;
38513;SDS011;24282;48.400;10.808;2022-12-07T14:16:55;5.93;;;4.20;;
38513;SDS011;24282;48.400;10.808;2022-12-07T14:22:06;6.23;;;4.53;;
38513;SDS011;24282;48.400;10.808;2022-12-07T14:24:43;5.23;;;4.13;;
38513;SDS011;24282;48.400;10.808;2022-12-07T14:27:22;5.33;;;3.40;;
38513;SDS011;24282;48.400;10.808;2022-12-07T14:29:50;5.10;;;4.03;;
38513;SDS011;24282;48.400;10.808;2022-12-07T14:32:21;4.97;;;3.63;;
38513;SDS011;24282;48.400;10.808;2022-12-07T14:37:33;5.37;;;3.83;;
38513;SDS011;24282;48.400;10.808;2022-12-07T14:39:59;5.97;;;4.40;;
38513;SDS011;24282;48.400;10.808;2022-12-07T14:42:26;5.13;;;3.93;;
38513;SDS011;24282;48.400;10.808;2022-12-07T14:44:55;6.07;;;3.90;;
38513;SDS011;24282;48.400;10.808;2022-12-07T14:47:21;5.17;;;3.53;;
38513;SDS011;24282;48.400;10.808;2022-12-07T14:49:47;5.60;;;3.93;;
38513;SDS011;24282;48.400;10.808;2022-12-07T14:52:14;6.53;;;3.60;;
38513;SDS011;24282;48.400;10.808;2022-12-07T14:54:42;6.80;;;3.93;;
38513;SDS011;24282;48.400;10.808;2022-12-07T14:57:08;5.47;;;3.93;;
38513;SDS011;24282;48.400;10.808;2022-12-07T14:59:35;6.87;;;3.97;;
38513;SDS011;24282;48.400;10.808;2022-12-07T15:02:01;5.73;;;4.23;;
38513;SDS011;24282;48.400;10.808;2022-12-07T15:04:26;5.83;;;4.00;;
38513;SDS011;24282;48.400;10.808;2022-12-07T15:07:02;6.93;;;4.43;;
38513;SDS011;24282;48.400;10.808;2022-12-07T15:09:29;5.47;;;3.87;;
38513;SDS011;24282;48.400;10.808;2022-12-07T15:11:55;8.03;;;4.23;;
38513;SDS011;24282;48.400;10.808;2022-12-07T15:14:21;6.83;;;4.63;;
38513;SDS011;24282;48.400;10.808;2022-12-07T15:16:46;6.87;;;4.70;;
38513;SDS011;24282;48.400;10.808;2022-12-07T15:19:13;6.97;;;4.87;;
38513;SDS011;24282;48.400;10.808;2022-12-07T15:21:41;5.50;;;3.70;;
38513;SDS011;24282;48.400;10.808;2022-12-07T15:24:08;7.07;;;4.53;;
38513;SDS011;24282;48.400;10.808;2022-12-07T15:26:35;5.53;;;3.90;;
38513;SDS011;24282;48.400;10.808;2022-12-07T15:29:01;5.53;;;3.70;;
38513;SDS011;24282;48.400;10.808;2022-12-07T15:31:26;5.10;;;3.53;;
38513;SDS011;24282;48.400;10.808;2022-12-07T15:33:52;4.83;;;3.57;;
38513;SDS011;24282;48.400;10.808;2022-12-07T15:36:20;5.50;;;3.53;;
38513;SDS011;24282;48.400;10.808;2022-12-07T15:38:47;4.80;;;3.40;;
38513;SDS011;24282;48.400;10.808;2022-12-07T15:41:13;4.53;;;3.27;;
38513;SDS011;24282;48.400;10.808;2022-12-07T15:43:39;5.60;;;3.90;;
38513;SDS011;24282;48.400;10.808;2022-12-07T15:46:23;7.10;;;5.00;;
38513;SDS011;24282;48.400;10.808;2022-12-07T15:48:55;7.50;;;4.63;;
38513;SDS011;24282;48.400;10.808;2022-12-07T15:51:20;5.97;;;4.03;;
38513;SDS011;24282;48.400;10.808;2022-12-07T15:53:46;5.00;;;3.83;;
38513;SDS011;24282;48.400;10.808;2022-12-07T15:56:12;5.87;;;4.33;;
38513;SDS011;24282;48.400;10.808;2022-12-07T15:58:37;8.53;;;4.43;;
38513;SDS011;24282;48.400;10.808;2022-12-07T16:01:16;6.90;;;4.40;;
38513;SDS011;24282;48.400;10.808;2022-12-07T16:03:43;5.87;;;4.43;;
38513;SDS011;24282;48.400;10.808;2022-12-07T16:06:10;5.93;;;4.37;;
38513;SDS011;24282;48.400;10.808;2022-12-07T16:08:36;6.93;;;4.30;;
38513;SDS011;24282;48.400;10.808;2022-12-07T16:11:06;7.67;;;4.57;;
38513;SDS011;24282;48.400;10.808;2022-12-07T16:13:33;6.77;;;4.30;;
38513;SDS011;24282;48.400;10.808;2022-12-07T16:16:02;6.80;;;4.13;;
38513;SDS011;24282;48.400;10.808;2022-12-07T16:20:58;5.43;;;3.93;;
38513;SDS011;24282;48.400;10.808;2022-12-07T16:23:24;5.30;;;3.93;;
38513;SDS011;24282;48.400;10.808;2022-12-07T16:25:50;5.73;;;4.23;;
38513;SDS011;24282;48.400;10.808;2022-12-07T16:28:15;5.63;;;4.37;;
38513;SDS011;24282;48.400;10.808;2022-12-07T16:30:41;8.10;;;5.33;;
38513;SDS011;24282;48.400;10.808;2022-12-07T16:33:07;7.90;;;5.67;;
38513;SDS011;24282;48.400;10.808;2022-12-07T16:35:32;12.03;;;9.77;;
38513;SDS011;24282;48.400;10.808;2022-12-07T16:37:58;11.33;;;9.17;;
38513;SDS011;24282;48.400;10.808;2022-12-07T16:40:24;11.43;;;8.53;;
38513;SDS011;24282;48.400;10.808;2022-12-07T16:42:49;13.07;;;8.27;;
38513;SDS011;24282;48.400;10.808;2022-12-07T16:45:15;12.43;;;9.60;;
38513;SDS011;24282;48.400;10.808;2022-12-07T16:47:41;13.87;;;8.50;;
38513;SDS011;24282;48.400;10.808;2022-12-07T16:50:07;14.87;;;9.40;;
38513;SDS011;24282;48.400;10.808;2022-12-07T16:52:33;9.33;;;6.30;;
38513;SDS011;24282;48.400;10.808;2022-12-07T16:54:58;8.17;;;5.60;;
38513;SDS011;24282;48.400;10.808;2022-12-07T16:57:24;6.27;;;4.40;;
38513;SDS011;24282;48.400;10.808;2022-12-07T16:59:51;17.03;;;9.30;;
38513;SDS011;24282;48.400;10.808;2022-12-07T17:02:17;12.70;;;8.33;;
38513;SDS011;24282;48.400;10.808;2022-12-07T17:04:43;10.20;;;7.80;;
38513;SDS011;24282;48.400;10.808;2022-12-07T17:07:09;9.17;;;7.43;;
38513;SDS011;24282;48.400;10.808;2022-12-07T17:09:35;10.23;;;7.30;;
38513;SDS011;24282;48.400;10.808;2022-12-07T17:12:01;11.13;;;8.40;;
38513;SDS011;24282;48.400;10.808;2022-12-07T17:14:27;11.67;;;8.70;;
38513;SDS011;24282;48.400;10.808;2022-12-07T17:17:11;13.43;;;10.20;;
38513;SDS011;24282;48.400;10.808;2022-12-07T17:19:37;11.37;;;8.57;;
38513;SDS011;24282;48.400;10.808;2022-12-07T17:22:03;12.77;;;8.20;;
38513;SDS011;24282;48.400;10.808;2022-12-07T17:24:29;9.63;;;7.63;;
38513;SDS011;24282;48.400;10.808;2022-12-07T17:26:55;9.53;;;7.10;;
38513;SDS011;24282;48.400;10.808;2022-12-07T17:29:20;11.13;;;7.83;;